Map

Track Data

SID SEASON NUMBER BASIN SUBBASIN NAME ISO_TIME NATURE LAT LON WMO_WIND WMO_PRES WMO_AGENCY TRACK_TYPE DIST2LAND LANDFALL IFLAG USA_AGENCY USA_ATCF_ID USA_LAT USA_LON USA_RECORD USA_STATUS USA_WIND USA_PRES USA_SSHS USA_R34_NE USA_R34_SE USA_R34_SW USA_R34_NW USA_R50_NE USA_R50_SE USA_R50_SW USA_R50_NW USA_R64_NE USA_R64_SE USA_R64_SW USA_R64_NW USA_POCI USA_ROCI USA_RMW USA_EYE TOKYO_LAT TOKYO_LON TOKYO_GRADE TOKYO_WIND TOKYO_PRES TOKYO_R50_DIR TOKYO_R50_LONG TOKYO_R50_SHORT TOKYO_R30_DIR TOKYO_R30_LONG TOKYO_R30_SHORT TOKYO_LAND CMA_LAT CMA_LON CMA_CAT CMA_WIND CMA_PRES HKO_LAT HKO_LON HKO_CAT HKO_WIND HKO_PRES NEWDELHI_LAT NEWDELHI_LON NEWDELHI_GRADE NEWDELHI_WIND NEWDELHI_PRES NEWDELHI_CI NEWDELHI_DP NEWDELHI_POCI REUNION_LAT REUNION_LON REUNION_TYPE REUNION_WIND REUNION_PRES REUNION_TNUM REUNION_CI REUNION_RMW REUNION_R34_NE REUNION_R34_SE REUNION_R34_SW REUNION_R34_NW REUNION_R50_NE REUNION_R50_SE REUNION_R50_SW REUNION_R50_NW REUNION_R64_NE REUNION_R64_SE REUNION_R64_SW REUNION_R64_NW BOM_LAT BOM_LON BOM_TYPE BOM_WIND BOM_PRES BOM_TNUM BOM_CI BOM_RMW BOM_R34_NE BOM_R34_SE BOM_R34_SW BOM_R34_NW BOM_R50_NE BOM_R50_SE BOM_R50_SW BOM_R50_NW BOM_R64_NE BOM_R64_SE BOM_R64_SW BOM_R64_NW BOM_ROCI BOM_POCI BOM_EYE BOM_POS_METHOD BOM_PRES_METHOD NADI_LAT NADI_LON NADI_CAT NADI_WIND NADI_PRES WELLINGTON_LAT WELLINGTON_LON WELLINGTON_WIND WELLINGTON_PRES DS824_LAT DS824_LON DS824_STAGE DS824_WIND DS824_PRES TD9636_LAT TD9636_LON TD9636_STAGE TD9636_WIND TD9636_PRES TD9635_LAT TD9635_LON TD9635_WIND TD9635_PRES TD9635_ROCI NEUMANN_LAT NEUMANN_LON NEUMANN_CLASS NEUMANN_WIND NEUMANN_PRES MLC_LAT MLC_LON MLC_CLASS MLC_WIND MLC_PRES USA_GUST BOM_GUST BOM_GUST_PER REUNION_GUST REUNION_GUST_PER USA_SEAHGT USA_SEARAD_NE USA_SEARAD_SE USA_SEARAD_SW USA_SEARAD_NW STORM_SPEED STORM_DIR
1885355S10068 1886 58 SI MM NOT_NAMED 1885-12-21 06:00:00 NR -9.90000 68.0000 reunion main 1588 1527 _____O________ -1 -9.90000 68.0000 99 9.90000 14 251
1885355S10068 1886 58 SI MM NOT_NAMED 1885-12-21 09:00:00 NR -10.1220 67.3511 main 1527 1460 _____P________ -1 -10.1220 67.3511 99 14 251
1885355S10068 1886 58 SI MM NOT_NAMED 1885-12-21 12:00:00 NR -10.3412 66.7070 main 1460 1401 _____P________ -1 -10.3412 66.7070 99 13 251
1885355S10068 1886 58 SI MM NOT_NAMED 1885-12-21 15:00:00 NR -10.5556 66.0742 main 1392 1334 _____P________ -1 -10.5556 66.0742 99 13 251
1885355S10068 1886 58 SI MM NOT_NAMED 1885-12-21 18:00:00 NR -10.7637 65.4590 main 1334 1277 _____P________ -1 -10.7637 65.4590 99 13 251
1885355S10068 1886 58 SI MM NOT_NAMED 1885-12-21 21:00:00 NR -10.9637 64.8677 main 1277 1230 _____P________ -1 -10.9637 64.8677 99 12 251
1885355S10068 1886 58 SI MM NOT_NAMED 1885-12-22 00:00:00 NR -11.1541 64.3066 main 1220 1181 _____P________ -1 -11.1541 64.3066 99 11 251
1885355S10068 1886 58 SI MM NOT_NAMED 1885-12-22 03:00:00 NR -11.3334 63.7819 main 1181 1133 _____P________ -1 -11.3334 63.7819 99 10 251
1885355S10068 1886 58 SI MM NOT_NAMED 1885-12-22 06:00:00 NR -11.5000 63.3000 reunion main 1133 1101 _____O________ -1 -11.5000 63.3000 99 9.90000 10 250
1885355S10068 1886 58 SI MM NOT_NAMED 1885-12-22 09:00:00 NR -11.6534 62.8646 main 1092 1061 _____P________ -1 -11.6534 62.8646 99 9 250
1885355S10068 1886 58 SI MM NOT_NAMED 1885-12-22 12:00:00 NR -11.7959 62.4700 main 1061 1031 _____P________ -1 -11.7959 62.4700 99 8 249
1885355S10068 1886 58 SI MM NOT_NAMED 1885-12-22 15:00:00 NR -11.9309 62.1080 main 1031 996 _____P________ -1 -11.9309 62.1080 99 7 249
1885355S10068 1886 58 SI MM NOT_NAMED 1885-12-22 18:00:00 NR -12.0614 61.7705 main 996 972 _____P________ -1 -12.0614 61.7705 99 7 248
1885355S10068 1886 58 SI MM NOT_NAMED 1885-12-22 21:00:00 NR -12.1905 61.4491 main 968 949 _____P________ -1 -12.1905 61.4491 99 7 247
1885355S10068 1886 58 SI MM NOT_NAMED 1885-12-23 00:00:00 NR -12.3214 61.1357 main 945 923 _____P________ -1 -12.3214 61.1357 99 7 247
1885355S10068 1886 58 SI MM NOT_NAMED 1885-12-23 03:00:00 NR -12.4569 60.8221 main 912 890 _____P________ -1 -12.4569 60.8221 99 7 246
1885355S10068 1886 58 SI MM NOT_NAMED 1885-12-23 06:00:00 NR -12.6000 60.5000 reunion main 890 866 _____O________ -1 -12.6000 60.5000 99 9.90000 7 246
1885355S10068 1886 58 SI MM NOT_NAMED 1885-12-23 09:00:00 NR -12.7553 60.1227 main 856 836 _____P________ -1 -12.7553 60.1227 99 8 247
1885355S10068 1886 58 SI MM NOT_NAMED 1885-12-23 12:00:00 NR -12.9163 59.7398 main 833 804 _____P________ -1 -12.9163 59.7398 99 8 246
1885355S10068 1886 58 SI MM NOT_NAMED 1885-12-23 15:00:00 NR -13.0829 59.3544 main 804 784 _____P________ -1 -13.0829 59.3544 99 8 246
1885355S10068 1886 58 SI MM NOT_NAMED 1885-12-23 18:00:00 NR -13.2551 58.9697 main 773 755 _____P________ -1 -13.2551 58.9697 99 8 245
1885355S10068 1886 58 SI MM NOT_NAMED 1885-12-23 21:00:00 NR -13.4330 58.5887 main 755 729 _____P________ -1 -13.4330 58.5887 99 8 244
1885355S10068 1886 58 SI MM NOT_NAMED 1885-12-24 00:00:00 NR -13.6164 58.2147 main 729 705 _____P________ -1 -13.6164 58.2147 99 8 243
1885355S10068 1886 58 SI MM NOT_NAMED 1885-12-24 03:00:00 NR -13.8054 57.8507 main 705 682 _____P________ -1 -13.8054 57.8507 99 8 241
1885355S10068 1886 58 SI MM NOT_NAMED 1885-12-24 06:00:00 NR -14.0000 57.5000 reunion main 682 660 _____O________ -1 -14.0000 57.5000 99 9.90000 8 240
1885355S10068 1886 58 SI MM NOT_NAMED 1885-12-24 09:00:00 NR -14.1943 57.1585 main 660 641 _____P________ -1 -14.1943 57.1585 99 8 239
1885355S10068 1886 58 SI MM NOT_NAMED 1885-12-24 12:00:00 NR -14.3947 56.8281 main 642 622 _____P________ -1 -14.3947 56.8281 99 8 237
1885355S10068 1886 58 SI MM NOT_NAMED 1885-12-24 15:00:00 NR -14.6007 56.5092 main 624 606 _____P________ -1 -14.6007 56.5092 99 7 235
1885355S10068 1886 58 SI MM NOT_NAMED 1885-12-24 18:00:00 NR -14.8119 56.2021 main 608 580 _____P________ -1 -14.8119 56.2021 99 7 234
1885355S10068 1886 58 SI MM NOT_NAMED 1885-12-24 21:00:00 NR -15.0278 55.9072 main 580 547 _____P________ -1 -15.0278 55.9072 99 7 232
1885355S10068 1886 58 SI MM NOT_NAMED 1885-12-25 00:00:00 NR -15.2481 55.6250 main 547 525 _____P________ -1 -15.2481 55.6250 99 7 230
1885355S10068 1886 58 SI MM NOT_NAMED 1885-12-25 03:00:00 NR -15.4723 55.3558 main 525 494 _____P________ -1 -15.4723 55.3558 99 7 228
1885355S10068 1886 58 SI MM NOT_NAMED 1885-12-25 06:00:00 NR -15.7000 55.1000 reunion main 494 473 _____O________ -1 -15.7000 55.1000 99 9.90000 7 228
1885355S10068 1886 58 SI MM NOT_NAMED 1885-12-25 09:00:00 NR -15.9222 54.8394 main 463 445 _____P________ -1 -15.9222 54.8394 99 7 228
1885355S10068 1886 58 SI MM NOT_NAMED 1885-12-25 12:00:00 NR -16.1480 54.5918 main 445 429 _____P________ -1 -16.1480 54.5918 99 7 226
1885355S10068 1886 58 SI MM NOT_NAMED 1885-12-25 15:00:00 NR -16.3778 54.3575 main 431 407 _____P________ -1 -16.3778 54.3575 99 6 223
1885355S10068 1886 58 SI MM NOT_NAMED 1885-12-25 18:00:00 NR -16.6120 54.1370 main 407 395 _____P________ -1 -16.6120 54.1370 99 6 221
1885355S10068 1886 58 SI MM NOT_NAMED 1885-12-25 21:00:00 NR -16.8510 53.9307 main 400 390 _____P________ -1 -16.8510 53.9307 99 6 218
1885355S10068 1886 58 SI MM NOT_NAMED 1885-12-26 00:00:00 NR -17.0951 53.7388 main 390 385 _____P________ -1 -17.0951 53.7388 99 6 216
1885355S10068 1886 58 SI MM NOT_NAMED 1885-12-26 03:00:00 NR -17.3446 53.5618 main 389 379 _____P________ -1 -17.3446 53.5618 99 6 213
1885355S10068 1886 58 SI MM NOT_NAMED 1885-12-26 06:00:00 NR -17.6000 53.4000 reunion main 384 377 _____O________ -1 -17.6000 53.4000 99 9.90000 6 212
1885355S10068 1886 58 SI MM NOT_NAMED 1885-12-26 09:00:00 NR -17.8418 53.2329 main 377 375 _____P________ -1 -17.8418 53.2329 99 6 212
1885355S10068 1886 58 SI MM NOT_NAMED 1885-12-26 12:00:00 NR -18.0876 53.0807 main 379 369 _____P________ -1 -18.0876 53.0807 99 6 209
1885355S10068 1886 58 SI MM NOT_NAMED 1885-12-26 15:00:00 NR -18.3402 52.9437 main 365 360 _____P________ -1 -18.3402 52.9437 99 6 205
1885355S10068 1886 58 SI MM NOT_NAMED 1885-12-26 18:00:00 NR -18.6023 52.8224 main 361 354 _____P________ -1 -18.6023 52.8224 99 6 202
1885355S10068 1886 58 SI MM NOT_NAMED 1885-12-26 21:00:00 NR -18.8766 52.7170 main 356 343 _____P________ -1 -18.8766 52.7170 99 6 198
1885355S10068 1886 58 SI MM NOT_NAMED 1885-12-27 00:00:00 NR -19.1658 52.6279 main 344 324 _____P________ -1 -19.1658 52.6279 99 6 194
1885355S10068 1886 58 SI MM NOT_NAMED 1885-12-27 03:00:00 NR -19.4727 52.5555 main 324 316 _____P________ -1 -19.4727 52.5555 99 6 191
1885355S10068 1886 58 SI MM NOT_NAMED 1885-12-27 06:00:00 NR -19.8000 52.5000 reunion main 316 306 _____O________ -1 -19.8000 52.5000 99 9.90000 7 192
1885355S10068 1886 58 SI MM NOT_NAMED 1885-12-27 09:00:00 NR -20.1379 52.4121 main 312 301 _____P________ -1 -20.1379 52.4121 99 7 193
1885355S10068 1886 58 SI MM NOT_NAMED 1885-12-27 12:00:00 NR -20.4950 52.3376 main 308 302 _____P________ -1 -20.4950 52.3376 99 7 189
1885355S10068 1886 58 SI MM NOT_NAMED 1885-12-27 15:00:00 NR -20.8705 52.2822 main 301 300 _____P________ -1 -20.8705 52.2822 99 8 186
1885355S10068 1886 58 SI MM NOT_NAMED 1885-12-27 18:00:00 NR -21.2638 52.2518 main 301 301 _____P________ -1 -21.2638 52.2518 99 8 0
1885355S10068 1886 58 SI MM NOT_NAMED 1885-12-27 21:00:00 NR -21.6741 52.2522 main 307 307 _____P________ -1 -21.6741 52.2522 99 8 178
1885355S10068 1886 58 SI MM NOT_NAMED 1885-12-28 00:00:00 NR -22.1007 52.2896 main 319 319 _____P________ -1 -22.1007 52.2896 99 9 173
1885355S10068 1886 58 SI MM NOT_NAMED 1885-12-28 03:00:00 NR -22.5429 52.3701 main 327 327 _____P________ -1 -22.5429 52.3701 99 9 168
1885355S10068 1886 58 SI MM NOT_NAMED 1885-12-28 06:00:00 NR -23.0000 52.5000 reunion main 345 345 _____O________ -1 -23.0000 52.5000 99 9.90000 9 166
1885355S10068 1886 58 SI MM NOT_NAMED 1885-12-28 09:00:00 NR -23.4424 52.6072 main 363 363 _____P________ -1 -23.4424 52.6072 99 9 165
1885355S10068 1886 58 SI MM NOT_NAMED 1885-12-28 12:00:00 NR -23.8991 52.7563 main 387 387 _____P________ -1 -23.8991 52.7563 99 10 161
1885355S10068 1886 58 SI MM NOT_NAMED 1885-12-28 15:00:00 NR -24.3712 52.9552 main 419 419 _____P________ -1 -24.3712 52.9552 99 11 157
1885355S10068 1886 58 SI MM NOT_NAMED 1885-12-28 18:00:00 NR -24.8599 53.2124 main 456 451 _____P________ -1 -24.8599 53.2124 99 11 152
1885355S10068 1886 58 SI MM NOT_NAMED 1885-12-28 21:00:00 NR -25.3663 53.5364 main 493 489 _____P________ -1 -25.3663 53.5364 99 12 148
1885355S10068 1886 58 SI MM NOT_NAMED 1885-12-29 00:00:00 NR -25.8912 53.9361 main 531 528 _____P________ -1 -25.8912 53.9361 99 13 143
1885355S10068 1886 58 SI MM NOT_NAMED 1885-12-29 03:00:00 NR -26.4355 54.4207 main 571 571 _____P________ -1 -26.4355 54.4207 99 15 139
1885355S10068 1886 58 SI MM NOT_NAMED 1885-12-29 06:00:00 NR -27.0000 55.0000 reunion main 628 628 _____O________ -1 -27.0000 55.0000 99 9.90000 17 135
1885355S10068 1886 58 SI MM NOT_NAMED 1885-12-29 09:00:00 NR -27.6449 55.7596 main 693 693 _____P________ -1 -27.6449 55.7596 99 20 132
1885355S10068 1886 58 SI MM NOT_NAMED 1885-12-29 12:00:00 NR -28.3162 56.6360 main 777 777 _____P________ -1 -28.3162 56.6360 99 21 130
1885355S10068 1886 58 SI MM NOT_NAMED 1885-12-29 15:00:00 NR -28.9953 57.5983 main 872 872 _____P________ -1 -28.9953 57.5983 99 22 128
1885355S10068 1886 58 SI MM NOT_NAMED 1885-12-29 18:00:00 NR -29.6639 58.6139 main 974 974 _____P________ -1 -29.6639 58.6139 99 22 126
1885355S10068 1886 58 SI MM NOT_NAMED 1885-12-29 21:00:00 NR -30.3045 59.6485 main 1071 1071 _____P________ -1 -30.3045 59.6485 99 22 125
1885355S10068 1886 58 SI MM NOT_NAMED 1885-12-30 00:00:00 NR -30.9006 60.6661 main 1176 1176 _____P________ -1 -30.9006 60.6661 99 20 124
1885355S10068 1886 58 SI MM NOT_NAMED 1885-12-30 03:00:00 NR -31.4370 61.6295 main 1265 1265 _____P________ -1 -31.4370 61.6295 99 19 123
1885355S10068 1886 58 SI MM NOT_NAMED 1885-12-30 06:00:00 NR -31.9000 62.5000 reunion main 1357 1357 _____O________ -1 -31.9000 62.5000 99 9.90000 16 122
1885355S10068 1886 58 SI MM NOT_NAMED 1885-12-30 09:00:00 NR -32.2807 63.2475 main 1426 1426 _____P________ -1 -32.2807 63.2475 99 14 121
1885355S10068 1886 58 SI MM NOT_NAMED 1885-12-30 12:00:00 NR -32.5875 63.8777 main 1484 1484 _____P________ -1 -32.5875 63.8777 99 11 119
1885355S10068 1886 58 SI MM NOT_NAMED 1885-12-30 15:00:00 NR -32.8321 64.4059 main 1525 1525 _____P________ -1 -32.8321 64.4059 99 9 118
1885355S10068 1886 58 SI MM NOT_NAMED 1885-12-30 18:00:00 NR -33.0258 64.8484 main 1562 1562 _____P________ -1 -33.0258 64.8484 99 8 117
1885355S10068 1886 58 SI MM NOT_NAMED 1885-12-30 21:00:00 NR -33.1793 65.2219 main 1599 1599 _____P________ -1 -33.1793 65.2219 99 6 115
1885355S10068 1886 58 SI MM NOT_NAMED 1885-12-31 00:00:00 NR -33.3029 65.5433 main 1623 1623 _____P________ -1 -33.3029 65.5433 99 6 114
1885355S10068 1886 58 SI MM NOT_NAMED 1885-12-31 03:00:00 NR -33.4065 65.8302 main 1647 1647 _____P________ -1 -33.4065 65.8302 99 5 113
1885355S10068 1886 58 SI MM NOT_NAMED 1885-12-31 06:00:00 NR -33.5000 66.1000 reunion main 1671 _____O________ -1 -33.5000 66.1000 99 9.90000 5 113

About IBTrACS Database

This database is a web-friendly format of International Best Track Archive for Climate Stewardship (IBTrACS), a global best track data archive curated by NOAA dating back to 1842.

Updated: 2021-11-26